createdAt,value
2019-03-18T00:01:33.334Z,71.70
2019-03-18T00:04:16.527Z,72.40
2019-03-18T00:06:59.212Z,72.70
2019-03-18T00:09:42.750Z,72.90
2019-03-18T00:12:32.268Z,73.10
2019-03-18T00:15:16.927Z,72.90
2019-03-18T00:17:59.362Z,73.10
2019-03-18T00:20:42.749Z,73.50
2019-03-18T00:23:32.401Z,73.50
2019-03-18T00:26:10.298Z,73.90
2019-03-18T00:29:00.119Z,73.80
2019-03-18T00:31:37.071Z,74.00
2019-03-18T00:34:28.284Z,74.10
2019-03-18T00:37:04.669Z,74.20
2019-03-18T00:39:54.048Z,74.10
2019-03-18T00:42:37.423Z,74.40
2019-03-18T00:45:20.105Z,74.30
2019-03-18T00:48:04.151Z,73.90
2019-03-18T00:50:46.213Z,73.70
2019-03-18T00:53:29.659Z,74.00
2019-03-18T00:56:13.637Z,74.30
2019-03-18T00:58:57.609Z,76.00
2019-03-18T01:01:48.667Z,76.00
2019-03-18T01:04:34.150Z,76.30
2019-03-18T01:07:24.717Z,76.60
2019-03-18T01:10:01.651Z,77.10
2019-03-18T01:12:52.518Z,77.40
2019-03-18T01:15:36.559Z,77.70
2019-03-18T01:18:20.181Z,77.90
2019-03-18T01:21:03.294Z,78.10
2019-03-18T01:23:59.156Z,78.40
2019-03-18T01:26:55.437Z,79.20
2019-03-18T01:29:50.312Z,78.80
2019-03-18T01:32:45.967Z,79.30
2019-03-18T01:35:35.570Z,79.30
2019-03-18T01:38:13.120Z,79.10
2019-03-18T01:41:03.355Z,78.90
2019-03-18T01:43:40.423Z,78.80
2019-03-18T01:46:30.241Z,78.70
2019-03-18T01:49:08.495Z,79.40
2019-03-18T01:51:58.950Z,79.50
2019-03-18T01:54:37.752Z,79.20
2019-03-18T01:57:27.589Z,79.30
2019-03-18T02:00:11.398Z,79.40
2019-03-18T02:03:03.425Z,79.10
2019-03-18T02:05:47.150Z,77.70
2019-03-18T02:08:44.036Z,77.80
2019-03-18T02:11:33.935Z,78.30
2019-03-18T02:14:10.797Z,78.90
2019-03-18T02:17:01.474Z,79.10
2019-03-18T02:19:37.978Z,79.20
2019-03-18T02:22:33.626Z,79.50
2019-03-18T02:25:28.956Z,79.80
2019-03-18T02:28:19.577Z,80.10
2019-03-18T02:30:56.389Z,80.70
2019-03-18T02:33:46.322Z,81.50
2019-03-18T02:36:29.138Z,82.10
2019-03-18T02:39:24.859Z,82.70
2019-03-18T02:42:14.533Z,83.10
2019-03-18T02:44:52.309Z,83.20
2019-03-18T02:47:41.596Z,83.60
2019-03-18T02:50:24.631Z,84.60
2019-03-18T02:53:13.602Z,85.20
2019-03-18T02:55:56.993Z,85.90
2019-03-18T02:58:47.959Z,86.20
2019-03-18T03:01:30.772Z,86.60
2019-03-18T03:04:14.593Z,87.60
2019-03-18T03:07:03.801Z,88.20
2019-03-18T03:09:40.684Z,88.40
2019-03-18T03:12:31.240Z,89.10
2019-03-18T03:15:16.605Z,90.00
2019-03-18T03:18:07.208Z,90.10
2019-03-18T03:20:43.515Z,90.40
2019-03-18T03:23:33.693Z,90.50
2019-03-18T03:26:15.986Z,90.60
2019-03-18T03:29:05.967Z,91.00
2019-03-18T03:31:42.219Z,90.60
2019-03-18T03:34:32.519Z,90.80
2019-03-18T03:37:09.222Z,91.00
2019-03-18T03:39:59.270Z,91.20
2019-03-18T03:42:35.702Z,91.00
2019-03-18T03:45:25.813Z,91.10
2019-03-18T03:48:02.498Z,92.10
2019-03-18T03:50:51.561Z,91.80
2019-03-18T03:53:30.858Z,91.10
2019-03-18T03:56:18.565Z,91.70
2019-03-18T03:58:54.952Z,91.60
2019-03-18T04:01:45.076Z,92.10
2019-03-18T04:04:21.220Z,91.90
2019-03-18T04:07:11.709Z,91.90
2019-03-18T04:09:49.022Z,91.80
2019-03-18T04:12:39.427Z,91.80
2019-03-18T04:15:16.348Z,91.70
2019-03-18T04:18:06.651Z,91.70
2019-03-18T04:20:42.596Z,91.90
2019-03-18T04:23:31.222Z,91.70
2019-03-18T04:26:07.716Z,91.90
2019-03-18T04:28:58.009Z,91.80
2019-03-18T04:31:41.581Z,91.70
2019-03-18T04:34:31.338Z,91.80
2019-03-18T04:37:08.148Z,92.40
2019-03-18T04:39:57.987Z,92.50
2019-03-18T04:42:35.464Z,92.50
2019-03-18T04:45:25.648Z,91.80
2019-03-18T04:48:09.104Z,91.80
2019-03-18T04:50:58.842Z,92.00
2019-03-18T04:53:35.179Z,92.40
2019-03-18T04:56:23.671Z,92.80
2019-03-18T04:59:07.460Z,92.90
2019-03-18T05:01:56.772Z,92.90
2019-03-18T05:04:33.208Z,92.70
2019-03-18T05:07:23.004Z,93.10
2019-03-18T05:09:59.920Z,93.70
2019-03-18T05:12:49.136Z,92.00
2019-03-18T05:15:25.342Z,89.20
2019-03-18T05:18:15.517Z,87.70
2019-03-18T05:21:11.762Z,89.90
2019-03-18T05:24:07.707Z,87.10
2019-03-18T05:27:04.016Z,90.00
2019-03-18T05:29:58.981Z,87.40
2019-03-18T05:32:48.488Z,86.70
2019-03-18T05:35:37.614Z,84.10
2019-03-18T05:38:21.407Z,81.90
2019-03-18T05:41:04.352Z,79.60
2019-03-18T05:43:47.471Z,80.00
2019-03-18T05:46:30.617Z,80.70
2019-03-18T05:49:13.871Z,80.00
2019-03-18T05:52:03.339Z,79.30
2019-03-18T05:54:40.046Z,79.30
2019-03-18T05:57:30.274Z,80.20
2019-03-18T06:00:09.277Z,80.70
2019-03-18T06:03:00.031Z,81.20
2019-03-18T06:05:55.055Z,79.60
2019-03-18T06:08:50.182Z,79.90
2019-03-18T06:11:45.842Z,77.50
2019-03-18T06:14:35.175Z,78.80
2019-03-18T06:17:11.545Z,78.30
2019-03-18T06:20:01.597Z,78.00
2019-03-18T06:22:44.525Z,78.70
2019-03-18T06:25:33.595Z,80.80
2019-03-18T06:28:16.603Z,80.90
2019-03-18T06:31:00.465Z,82.60
2019-03-18T06:33:50.762Z,83.80
2019-03-18T06:36:26.948Z,81.60
2019-03-18T06:39:16.589Z,81.80
2019-03-18T06:41:52.815Z,82.80
2019-03-18T06:44:42.923Z,83.00
2019-03-18T06:47:26.780Z,77.60
2019-03-18T06:50:09.843Z,75.10
2019-03-18T06:52:53.697Z,74.30
2019-03-18T06:55:36.254Z,74.30
2019-03-18T06:58:19.491Z,79.10
2019-03-18T07:01:02.909Z,70.00
2019-03-18T07:03:53.280Z,70.50
2019-03-18T07:06:35.965Z,68.40
2019-03-18T07:09:31.957Z,69.70
2019-03-18T07:12:23.888Z,67.40
2019-03-18T07:15:07.633Z,67.30
2019-03-18T07:17:57.538Z,68.10
2019-03-18T07:20:41.193Z,68.20
2019-03-18T07:23:36.848Z,68.00
2019-03-18T07:26:32.131Z,67.20
2019-03-18T07:29:27.099Z,67.00
2019-03-18T07:32:22.389Z,65.20
2019-03-18T07:35:12.607Z,67.00
2019-03-18T07:37:56.058Z,66.20
2019-03-18T07:40:51.151Z,69.00
2019-03-18T07:43:47.033Z,68.80
2019-03-18T07:46:37.055Z,72.50
2019-03-18T07:49:13.185Z,73.70
2019-03-18T07:52:03.094Z,74.30
2019-03-18T07:54:39.553Z,74.40
2019-03-18T07:57:29.073Z,74.20
2019-03-18T08:00:05.399Z,77.80
2019-03-18T08:02:55.360Z,77.90
2019-03-18T08:05:31.609Z,79.60
2019-03-18T08:08:22.027Z,80.40
2019-03-18T08:10:58.445Z,81.40
2019-03-18T08:13:49.350Z,81.20
2019-03-18T08:16:25.383Z,82.20
2019-03-18T08:19:16.921Z,83.80
2019-03-18T08:21:53.110Z,83.60
2019-03-18T08:24:43.941Z,83.40
2019-03-18T08:27:26.922Z,83.70
2019-03-18T08:30:26.838Z,83.30
2019-03-18T08:33:22.674Z,82.70
2019-03-18T08:36:14.650Z,82.40
2019-03-18T08:38:51.710Z,83.00
2019-03-18T08:41:41.471Z,83.20
2019-03-18T08:44:23.610Z,83.40
2019-03-18T08:47:07.469Z,83.20
2019-03-18T08:49:53.423Z,83.80
2019-03-18T08:52:37.106Z,83.30
2019-03-18T08:55:19.724Z,81.80
2019-03-18T08:58:03.347Z,82.90
2019-03-18T09:00:45.611Z,82.80
2019-03-18T09:03:29.150Z,81.90
2019-03-18T09:06:18.042Z,82.60
2019-03-18T09:09:14.101Z,81.90
2019-03-18T09:12:04.264Z,81.10
2019-03-18T09:14:41.233Z,80.20
2019-03-18T09:17:31.702Z,78.60
2019-03-18T09:20:08.406Z,79.00
2019-03-18T09:23:01.315Z,78.90
2019-03-18T09:25:36.732Z,79.00
2019-03-18T09:28:45.816Z,79.60
2019-03-18T09:31:42.126Z,79.20
2019-03-18T09:34:38.337Z,79.10
2019-03-18T09:37:30.295Z,78.90
2019-03-18T09:40:06.926Z,78.80
2019-03-18T09:42:56.923Z,78.80
2019-03-18T09:45:42.617Z,78.10
2019-03-18T09:48:39.567Z,78.20
2019-03-18T09:51:29.663Z,78.60
2019-03-18T09:54:13.349Z,78.40
2019-03-18T09:57:02.283Z,77.10
2019-03-18T09:59:39.286Z,77.20
2019-03-18T10:02:29.706Z,77.70
2019-03-18T10:05:06.769Z,76.90
2019-03-18T10:07:56.877Z,77.30
2019-03-18T10:10:33.096Z,76.30
2019-03-18T10:13:23.187Z,75.70
2019-03-18T10:16:06.243Z,75.60
2019-03-18T10:18:55.762Z,75.30
2019-03-18T10:21:33.079Z,74.70
2019-03-18T10:24:28.699Z,73.90
2019-03-18T10:27:12.279Z,74.10
2019-03-18T10:30:11.621Z,74.10
2019-03-18T10:33:11.296Z,73.40
2019-03-18T10:36:07.023Z,72.60
2019-03-18T10:39:09.469Z,72.30
2019-03-18T10:42:08.169Z,72.30
2019-03-18T10:45:05.210Z,71.90
2019-03-18T10:47:43.427Z,71.40
2019-03-18T10:50:36.128Z,71.20
2019-03-18T10:53:19.719Z,71.60
2019-03-18T10:56:16.720Z,72.80
2019-03-18T10:59:10.483Z,70.70
2019-03-18T11:01:54.756Z,72.50
2019-03-18T11:04:46.186Z,73.70
2019-03-18T11:07:23.491Z,73.40
2019-03-18T11:10:15.831Z,71.00
2019-03-18T11:12:54.469Z,71.20
2019-03-18T11:15:44.705Z,70.90
2019-03-18T11:18:21.471Z,70.80
2019-03-18T11:21:13.460Z,70.70
2019-03-18T11:23:50.439Z,67.80
2019-03-18T11:26:40.410Z,67.80
2019-03-18T11:29:27.795Z,67.90
2019-03-18T11:32:23.231Z,65.40
2019-03-18T11:35:12.817Z,65.70
2019-03-18T11:37:56.968Z,64.00
2019-03-18T11:40:53.884Z,63.10
2019-03-18T11:43:51.855Z,63.10
2019-03-18T11:46:42.568Z,61.60
2019-03-18T11:49:38.568Z,62.10
2019-03-18T11:52:32.619Z,62.60
2019-03-18T11:55:33.923Z,61.10
2019-03-18T11:58:30.175Z,60.60
2019-03-18T12:01:25.585Z,59.70
2019-03-18T12:04:20.956Z,58.70
2019-03-18T12:07:18.055Z,56.80
2019-03-18T12:10:13.481Z,56.70
2019-03-18T12:13:09.785Z,56.60
2019-03-18T12:15:58.817Z,57.50
2019-03-18T12:18:35.534Z,57.40
2019-03-18T12:21:26.231Z,57.40
2019-03-18T12:24:09.011Z,58.20
2019-03-18T12:26:53.610Z,58.70
2019-03-18T12:29:36.193Z,57.00
2019-03-18T12:32:19.730Z,57.60
2019-03-18T12:35:09.671Z,57.70
2019-03-18T12:37:46.074Z,57.40
2019-03-18T12:40:36.281Z,56.70
2019-03-18T12:43:20.228Z,56.60
2019-03-18T12:46:02.712Z,57.30
2019-03-18T12:48:47.464Z,57.30
2019-03-18T12:51:37.115Z,56.70
2019-03-18T12:54:13.182Z,56.30
2019-03-18T12:57:02.699Z,56.60
2019-03-18T12:59:39.339Z,56.70
2019-03-18T13:02:29.390Z,56.70
2019-03-18T13:05:15.938Z,56.10
2019-03-18T13:07:59.241Z,55.70
2019-03-18T13:10:48.284Z,56.20
2019-03-18T13:13:34.699Z,55.40
2019-03-18T13:16:23.825Z,56.60
2019-03-18T13:19:06.656Z,55.80
2019-03-18T13:21:51.581Z,55.30
2019-03-18T13:24:35.694Z,55.40
2019-03-18T13:27:18.835Z,55.50
2019-03-18T13:30:01.206Z,55.50
2019-03-18T13:32:44.307Z,55.70
2019-03-18T13:35:30.136Z,55.30
2019-03-18T13:38:13.932Z,56.30
2019-03-18T13:40:58.165Z,56.40
2019-03-18T13:43:47.492Z,55.80
2019-03-18T13:46:31.002Z,56.80
2019-03-18T13:49:25.783Z,57.30
2019-03-18T13:52:15.742Z,57.50
2019-03-18T13:54:52.727Z,57.70
2019-03-18T13:57:42.931Z,58.60
2019-03-18T14:00:21.783Z,58.30
2019-03-18T14:03:15.228Z,59.00
2019-03-18T14:05:58.928Z,58.50
2019-03-18T14:08:55.016Z,57.70
2019-03-18T14:11:45.519Z,57.30
2019-03-18T14:14:28.268Z,57.80
2019-03-18T14:17:17.956Z,57.20
2019-03-18T14:20:15.286Z,57.40
2019-03-18T14:23:10.934Z,57.30
2019-03-18T14:26:00.993Z,58.70
2019-03-18T14:28:43.740Z,57.90
2019-03-18T14:31:27.509Z,58.40
2019-03-18T14:34:23.306Z,57.90
2019-03-18T14:37:13.638Z,57.10
2019-03-18T14:39:50.767Z,56.40
2019-03-18T14:42:41.425Z,56.60
2019-03-18T14:45:20.766Z,56.80
2019-03-18T14:48:11.059Z,57.00
2019-03-18T14:50:47.626Z,56.40
2019-03-18T14:53:38.424Z,56.20
2019-03-18T14:56:15.129Z,55.60
2019-03-18T14:59:05.136Z,55.60
2019-03-18T15:01:42.271Z,55.10
2019-03-18T15:04:32.757Z,54.80
2019-03-18T15:07:09.828Z,54.90
2019-03-18T15:09:59.401Z,54.70
2019-03-18T15:12:36.456Z,54.70
2019-03-18T15:15:27.677Z,54.80
2019-03-18T15:18:04.865Z,54.80
2019-03-18T15:20:55.362Z,54.60
2019-03-18T15:23:32.172Z,54.60
2019-03-18T15:26:23.489Z,54.80
2019-03-18T15:29:00.904Z,56.00
2019-03-18T15:31:52.282Z,55.40
2019-03-18T15:34:37.195Z,55.90
2019-03-18T15:37:27.303Z,56.90
2019-03-18T15:40:11.286Z,56.40
2019-03-18T15:42:55.595Z,56.60
2019-03-18T15:45:38.835Z,57.10
2019-03-18T15:48:22.716Z,58.20
2019-03-18T15:51:12.563Z,58.40
2019-03-18T15:53:48.952Z,58.20
2019-03-18T15:56:38.776Z,58.40
2019-03-18T15:59:22.740Z,58.40
2019-03-18T16:02:08.672Z,58.80
2019-03-18T16:04:53.380Z,58.50
2019-03-18T16:07:36.850Z,58.70
2019-03-18T16:10:21.892Z,59.30
2019-03-18T16:13:10.855Z,59.50
2019-03-18T16:15:54.901Z,60.10
2019-03-18T16:18:44.742Z,60.00
2019-03-18T16:21:21.701Z,59.80
2019-03-18T16:24:11.698Z,59.90
2019-03-18T16:26:48.608Z,59.20
2019-03-18T16:29:38.219Z,59.60
2019-03-18T16:32:14.824Z,59.60
2019-03-18T16:35:04.841Z,60.10
2019-03-18T16:38:02.664Z,61.40
2019-03-18T16:40:58.150Z,61.90
2019-03-18T16:43:54.869Z,62.50
2019-03-18T16:46:50.893Z,63.00
2019-03-18T16:49:46.315Z,63.80
2019-03-18T16:52:36.532Z,63.50
2019-03-18T16:55:13.454Z,62.90
2019-03-18T16:58:04.156Z,63.10
2019-03-18T17:00:46.809Z,62.70
2019-03-18T17:03:44.898Z,63.70
2019-03-18T17:06:34.284Z,63.70
2019-03-18T17:09:18.716Z,64.00
2019-03-18T17:12:08.790Z,63.30
2019-03-18T17:14:45.213Z,62.70
2019-03-18T17:17:35.696Z,62.00
2019-03-18T17:20:27.729Z,62.40
2019-03-18T17:23:18.278Z,63.20
2019-03-18T17:26:01.573Z,62.30
2019-03-18T17:28:56.391Z,60.90
2019-03-18T17:31:46.039Z,60.50
2019-03-18T17:34:21.980Z,60.40
2019-03-18T17:37:18.846Z,60.10
2019-03-18T17:40:14.082Z,59.70
2019-03-18T17:43:11.344Z,60.10
2019-03-18T17:46:07.832Z,60.30
2019-03-18T17:49:03.199Z,59.70
2019-03-18T17:51:53.243Z,59.50
2019-03-18T17:54:30.120Z,60.40
2019-03-18T17:57:21.868Z,59.90
2019-03-18T17:59:58.527Z,60.20
2019-03-18T18:02:48.667Z,60.00
2019-03-18T18:05:26.092Z,60.50
2019-03-18T18:08:18.254Z,61.00
2019-03-18T18:10:53.671Z,60.40
2019-03-18T18:13:44.304Z,60.30
2019-03-18T18:16:28.122Z,60.90
2019-03-18T18:19:17.621Z,60.40
2019-03-18T18:22:00.397Z,59.90
2019-03-18T18:24:55.754Z,60.40
2019-03-18T18:27:51.727Z,60.30
2019-03-18T18:30:46.995Z,60.60
2019-03-18T18:33:42.076Z,59.60
2019-03-18T18:36:31.134Z,59.90
2019-03-18T18:39:15.228Z,59.40
2019-03-18T18:42:12.111Z,59.40
2019-03-18T18:45:08.219Z,59.50
2019-03-18T18:47:51.361Z,59.00
2019-03-18T18:50:41.586Z,58.30
2019-03-18T18:53:35.553Z,58.30
2019-03-18T18:56:40.475Z,58.70
2019-03-18T18:59:16.545Z,58.80
2019-03-18T19:02:25.311Z,59.00
2019-03-18T19:05:04.114Z,59.00
2019-03-18T19:07:57.736Z,59.10
2019-03-18T19:10:35.220Z,59.40
2019-03-18T19:13:27.834Z,58.80
2019-03-18T19:16:05.232Z,58.90
2019-03-18T19:18:57.073Z,59.10
2019-03-18T19:24:48.835Z,59.50
2019-03-18T19:27:43.028Z,59.60
2019-03-18T19:30:26.616Z,59.20
2019-03-18T19:33:18.938Z,59.50
2019-03-18T19:39:13.655Z,59.30
2019-03-18T19:42:04.850Z,58.70
2019-03-18T19:44:56.592Z,59.20
2019-03-18T19:47:40.022Z,59.50
2019-03-18T19:50:31.607Z,59.80
2019-03-18T19:53:22.697Z,60.20
2019-03-18T19:56:06.677Z,60.90
2019-03-18T19:58:56.979Z,61.10
2019-03-18T20:01:33.695Z,61.10
2019-03-18T20:10:39.709Z,61.70
2019-03-18T20:13:23.653Z,62.60
2019-03-18T20:16:23.741Z,61.70
2019-03-18T20:19:01.625Z,61.80
2019-03-18T20:34:44.015Z,62.10
2019-03-18T20:37:39.494Z,61.90
2019-03-18T20:40:27.102Z,61.80
2019-03-18T20:43:24.624Z,61.60
2019-03-18T20:46:14.457Z,61.40
2019-03-18T20:49:03.051Z,61.70
2019-03-18T20:52:16.638Z,61.40
2019-03-18T21:01:54.644Z,61.80
2019-03-18T21:25:05.810Z,63.50
2019-03-18T22:13:52.470Z,62.90
2019-03-18T23:08:14.595Z,62.20
2019-03-18T23:10:58.379Z,62.50
2019-03-18T23:13:47.911Z,63.70
2019-03-18T23:16:31.433Z,64.00
2019-03-18T23:19:14.283Z,64.60
2019-03-18T23:21:58.437Z,65.30
2019-03-18T23:24:43.325Z,65.30
2019-03-18T23:27:32.550Z,65.90
2019-03-18T23:30:16.117Z,65.80
2019-03-18T23:36:21.273Z,67.20
2019-03-18T23:39:24.231Z,67.80
2019-03-18T23:42:27.898Z,69.20
